Time,TemperatureF,DewpointF,PressureIn,WindDirection,WindDirectionDegrees,WindSpeedMPH,WindSpeedGustMPH,Humidity,HourlyPrecipIn,Conditions,Clouds,dailyrainin,SolarRadiationWatts/m^2,SoftwareType,DateUTC
2013-05-05 00:00:00,55.5,43.5,30.32,WSW,247,7.0,11.0,64,0.00,,SCT,0.00,0.00,VWS V14.01,2013-05-05 04:00:00,
2013-05-05 00:01:00,55.5,41.9,30.32,SW,220,8.0,11.0,60,0.00,,SCT,0.00,0.00,VWS V14.01,2013-05-05 04:01:00,
2013-05-05 00:06:00,55.3,41.2,30.32,SW,234,7.0,11.0,59,0.00,,SCT,0.00,0.00,VWS V14.01,2013-05-05 04:06:00,
2013-05-05 00:11:00,55.3,40.3,30.32,WSW,237,4.0,11.0,57,0.00,,SCT,0.00,0.00,VWS V14.01,2013-05-05 04:11:00,
2013-05-05 00:16:00,55.1,40.6,30.32,SW,221,4.0,11.0,58,0.00,,SCT,0.00,0.00,VWS V14.01,2013-05-05 04:16:00,
2013-05-05 00:21:00,54.8,40.3,30.32,SW,220,3.0,11.0,58,0.00,,SCT,0.00,0.00,VWS V14.01,2013-05-05 04:21:00,
2013-05-05 00:26:00,54.6,40.1,30.32,SW,219,1.0,11.0,58,0.00,,SCT,0.00,0.00,VWS V14.01,2013-05-05 04:26:00,
2013-05-05 00:31:00,54.6,39.2,30.32,SW,219,0.0,11.0,56,0.00,,SCT,0.00,0.00,VWS V14.01,2013-05-05 04:31:00,
2013-05-05 00:36:00,54.4,39.0,30.32,SW,219,0.0,11.0,56,0.00,,SCT,0.00,0.00,VWS V14.01,2013-05-05 04:36:00,
2013-05-05 00:41:00,54.4,38.6,30.32,SW,219,0.0,11.0,55,0.00,,SCT,0.00,0.00,VWS V14.01,2013-05-05 04:41:00,
2013-05-05 00:46:00,54.5,38.2,30.32,SW,219,0.0,11.0,54,0.00,,SCT,0.00,0.00,VWS V14.01,2013-05-05 04:46:00,
2013-05-05 00:51:00,54.4,38.1,30.32,SW,219,0.0,11.0,54,0.00,,SCT,0.00,0.00,VWS V14.01,2013-05-05 04:51:00,
2013-05-05 00:56:00,54.3,38.0,30.32,SW,219,0.0,0.0,54,0.00,,SCT,0.00,0.00,VWS V14.01,2013-05-05 04:56:00,
2013-05-05 01:00:00,54.4,38.1,30.32,SW,219,0.0,11.0,54,0.00,,SCT,0.00,0.00,VWS V14.01,2013-05-05 05:00:00,
2013-05-05 01:01:00,53.6,38.3,30.31,SW,219,1.0,1.0,56,0.00,,SCT,0.00,0.00,VWS V14.01,2013-05-05 05:01:00,
2013-05-05 01:06:00,53.1,39.6,30.31,SW,219,2.0,3.0,60,0.00,,SCT,0.00,0.00,VWS V14.01,2013-05-05 05:06:00,
2013-05-05 01:11:00,52.7,39.6,30.31,SW,219,0.0,3.0,61,0.00,,SCT,0.00,0.00,VWS V14.01,2013-05-05 05:11:00,
2013-05-05 01:16:00,52.4,39.8,30.31,SW,219,0.0,3.0,62,0.00,,SCT,0.00,0.00,VWS V14.01,2013-05-05 05:16:00,
2013-05-05 01:21:00,52.2,38.3,30.31,SW,219,0.0,3.0,59,0.00,,SCT,0.00,0.00,VWS V14.01,2013-05-05 05:21:00,
2013-05-05 01:26:00,52.2,38.8,30.30,SW,219,3.0,3.0,60,0.00,,SCT,0.00,0.00,VWS V14.01,2013-05-05 05:26:00,
2013-05-05 01:31:00,52.1,39.5,30.30,SW,219,4.0,4.0,62,0.00,,SCT,0.00,0.00,VWS V14.01,2013-05-05 05:31:00,
2013-05-05 01:36:00,51.7,39.9,30.30,SW,219,0.0,4.0,64,0.00,,SCT,0.00,0.00,VWS V14.01,2013-05-05 05:36:00,
2013-05-05 01:41:00,51.3,40.0,30.30,SW,219,0.0,4.0,65,0.00,,SCT,0.00,0.00,VWS V14.01,2013-05-05 05:41:00,
2013-05-05 01:46:00,51.2,40.6,30.30,WSW,238,3.0,5.0,67,0.00,,SCT,0.00,0.00,VWS V14.01,2013-05-05 05:46:00,
2013-05-05 01:51:00,51.2,41.0,30.30,SW,235,2.0,5.0,68,0.00,,SCT,0.00,0.00,VWS V14.01,2013-05-05 05:51:00,
2013-05-05 01:55:00,51.0,41.2,30.30,SW,235,2.0,3.0,69,0.00,,SCT,0.00,0.00,VWS V14.01,2013-05-05 05:55:00,
2013-05-05 02:00:00,50.9,41.1,30.30,SW,235,0.0,3.0,69,0.00,,SCT,0.00,0.00,VWS V14.01,2013-05-05 06:00:00,
2013-05-05 02:05:00,50.6,41.2,30.30,SW,235,0.0,3.0,70,0.00,,SCT,0.00,0.00,VWS V14.01,2013-05-05 06:05:00,
2013-05-05 02:10:00,50.5,41.5,30.30,SW,235,0.0,3.0,71,0.00,,SCT,0.00,0.00,VWS V14.01,2013-05-05 06:10:00,
2013-05-05 02:15:00,50.4,41.7,30.30,SW,235,0.0,3.0,72,0.00,,SCT,0.00,0.00,VWS V14.01,2013-05-05 06:15:00,
2013-05-05 02:20:00,50.3,42.0,30.30,SW,235,0.0,3.0,73,0.00,,SCT,0.00,0.00,VWS V14.01,2013-05-05 06:20:00,
2013-05-05 02:25:00,50.3,41.6,30.30,SW,235,0.0,3.0,72,0.00,,SCT,0.00,0.00,VWS V14.01,2013-05-05 06:25:00,
2013-05-05 02:30:00,50.0,41.3,30.30,SW,235,0.0,3.0,72,0.00,,SCT,0.00,0.00,VWS V14.01,2013-05-05 06:30:00,
2013-05-05 02:35:00,50.0,41.7,30.30,SW,235,1.0,3.0,73,0.00,,SCT,0.00,0.00,VWS V14.01,2013-05-05 06:35:00,
2013-05-05 02:40:00,49.9,41.6,30.30,SW,235,0.0,3.0,73,0.00,,SCT,0.00,0.00,VWS V14.01,2013-05-05 06:40:00,
2013-05-05 02:45:00,49.7,41.8,30.29,SW,235,2.0,4.0,74,0.00,,SCT,0.00,0.00,VWS V14.01,2013-05-05 06:45:00,
2013-05-05 02:50:00,49.6,42.0,30.29,SW,229,5.0,5.0,75,0.00,,SCT,0.00,0.00,VWS V14.01,2013-05-05 06:50:00,
2013-05-05 02:55:00,49.5,41.9,30.29,SW,218,0.0,3.0,75,0.00,,SCT,0.00,0.00,VWS V14.01,2013-05-05 06:55:00,
2013-05-05 03:00:00,49.3,42.1,30.29,SW,218,1.0,3.0,76,0.00,,SCT,0.00,0.00,VWS V14.01,2013-05-05 07:00:00,
2013-05-05 03:05:00,49.0,42.1,30.29,SW,218,1.0,3.0,77,0.00,,SCT,0.00,0.00,VWS V14.01,2013-05-05 07:05:00,
2013-05-05 03:10:00,49.0,42.1,30.29,SW,218,0.0,3.0,77,0.00,,SCT,0.00,0.00,VWS V14.01,2013-05-05 07:10:00,
2013-05-05 03:15:00,49.0,42.5,30.29,SW,218,1.0,3.0,78,0.00,,SCT,0.00,0.00,VWS V14.01,2013-05-05 07:15:00,
2013-05-05 03:20:00,48.9,42.3,30.29,SW,218,0.0,3.0,78,0.00,,SCT,0.00,0.00,VWS V14.01,2013-05-05 07:20:00,
2013-05-05 03:25:00,48.6,42.1,30.29,SW,218,0.0,3.0,78,0.00,,SCT,0.00,0.00,VWS V14.01,2013-05-05 07:25:00,
2013-05-05 03:30:00,48.3,42.1,30.29,SW,218,0.0,3.0,79,0.00,,SCT,0.00,0.00,VWS V14.01,2013-05-05 07:30:00,
2013-05-05 03:35:00,48.2,42.3,30.29,SW,218,0.0,3.0,80,0.00,,SCT,0.00,0.00,VWS V14.01,2013-05-05 07:35:00,
2013-05-05 03:40:00,48.0,42.1,30.29,SW,218,0.0,3.0,80,0.00,,SCT,0.00,0.00,VWS V14.01,2013-05-05 07:40:00,
2013-05-05 03:45:00,47.9,42.4,30.29,SW,218,1.0,3.0,81,0.00,,SCT,0.00,0.00,VWS V14.01,2013-05-05 07:45:00,
2013-05-05 03:50:00,47.9,42.4,30.28,SW,218,2.0,3.0,81,0.00,,SCT,0.00,0.00,VWS V14.01,2013-05-05 07:50:00,
2013-05-05 03:55:00,47.7,42.2,30.28,SW,218,4.0,5.0,81,0.00,,SCT,0.00,0.00,VWS V14.01,2013-05-05 07:55:00,
2013-05-05 04:00:00,47.6,42.4,30.28,SW,218,1.0,5.0,82,0.00,,SCT,0.00,0.00,VWS V14.01,2013-05-05 08:00:00,
2013-05-05 04:05:00,47.3,42.4,30.28,SW,218,0.0,5.0,83,0.00,,SCT,0.00,0.00,VWS V14.01,2013-05-05 08:05:00,
2013-05-05 04:10:00,47.3,42.4,30.29,SW,218,0.0,5.0,83,0.00,,SCT,0.00,0.00,VWS V14.01,2013-05-05 08:10:00,
2013-05-05 04:15:00,47.2,42.3,30.29,SW,218,0.0,5.0,83,0.00,,SCT,0.00,0.00,VWS V14.01,2013-05-05 08:15:00,
2013-05-05 04:20:00,47.1,42.2,30.28,SW,218,0.0,5.0,83,0.00,,SCT,0.00,0.00,VWS V14.01,2013-05-05 08:20:00,
2013-05-05 04:25:00,47.1,41.9,30.28,SW,218,0.0,5.0,82,0.00,,SCT,0.00,0.00,VWS V14.01,2013-05-05 08:25:00,
2013-05-05 04:30:00,47.0,41.8,30.28,SW,218,0.0,5.0,82,0.00,,SCT,0.00,0.00,VWS V14.01,2013-05-05 08:30:00,
2013-05-05 04:35:00,46.9,41.7,30.28,South,176,6.0,6.0,82,0.00,,SCT,0.00,0.00,VWS V14.01,2013-05-05 08:35:00,
2013-05-05 04:40:00,46.7,41.5,30.28,SSW,207,2.0,6.0,82,0.00,,SCT,0.00,0.00,VWS V14.01,2013-05-05 08:40:00,
2013-05-05 04:45:00,46.3,41.1,30.28,SSW,203,0.0,6.0,82,0.00,,SCT,0.00,0.00,VWS V14.01,2013-05-05 08:45:00,
2013-05-05 04:50:00,45.9,41.3,30.28,SSW,203,0.0,6.0,84,0.00,,SCT,0.00,0.00,VWS V14.01,2013-05-05 08:50:00,
2013-05-05 04:55:00,45.6,41.4,30.28,South,179,0.0,5.0,85,0.00,,SCT,0.00,0.00,VWS V14.01,2013-05-05 08:55:00,
2013-05-05 05:00:00,45.4,41.2,30.28,South,182,0.0,5.0,85,0.00,,SCT,0.00,0.00,VWS V14.01,2013-05-05 09:00:00,
2013-05-05 05:05:00,45.2,41.0,30.29,South,182,0.0,5.0,85,0.00,,SCT,0.00,0.00,VWS V14.01,2013-05-05 09:05:00,
2013-05-05 05:10:00,44.9,41.0,30.29,South,182,0.0,5.0,86,0.00,,SCT,0.00,0.00,VWS V14.01,2013-05-05 09:10:00,
2013-05-05 05:15:00,44.6,41.0,30.29,South,182,0.0,5.0,87,0.00,,SCT,0.00,0.00,VWS V14.01,2013-05-05 09:15:00,
2013-05-05 05:20:00,44.4,41.1,30.30,South,182,0.0,5.0,88,0.00,,SCT,0.00,0.00,VWS V14.01,2013-05-05 09:20:00,
2013-05-05 05:25:00,44.3,41.0,30.30,South,182,0.0,5.0,88,0.00,,SCT,0.00,0.00,VWS V14.01,2013-05-05 09:25:00,
2013-05-05 05:30:00,44.4,41.1,30.30,South,182,0.0,5.0,88,0.00,,SCT,0.00,0.00,VWS V14.01,2013-05-05 09:30:00,
2013-05-05 05:35:00,44.2,40.9,30.30,South,182,0.0,5.0,88,0.00,,SCT,0.00,0.00,VWS V14.01,2013-05-05 09:35:00,
2013-05-05 05:40:00,44.3,41.0,30.30,South,183,3.0,5.0,88,0.00,,SCT,0.00,0.00,VWS V14.01,2013-05-05 09:40:00,
2013-05-05 05:45:00,44.1,40.5,30.30,SSW,194,0.0,7.0,87,0.00,,SCT,0.00,0.00,VWS V14.01,2013-05-05 09:45:00,
2013-05-05 05:50:00,43.8,40.5,30.30,SSW,209,6.0,7.0,88,0.00,,SCT,0.00,0.00,VWS V14.01,2013-05-05 09:50:00,
2013-05-05 05:55:00,43.8,40.5,30.30,SSW,204,7.0,9.0,88,0.00,,SCT,0.00,0.00,VWS V14.01,2013-05-05 09:55:00,
2013-05-05 06:00:00,43.8,40.5,30.31,SSW,204,4.0,9.0,88,0.00,,SCT,0.00,0.00,VWS V14.01,2013-05-05 10:00:00,
2013-05-05 06:05:00,43.7,40.4,30.31,SSW,207,5.0,9.0,88,0.00,,SCT,0.00,0.00,VWS V14.01,2013-05-05 10:05:00,
2013-05-05 06:10:00,43.7,40.4,30.31,SSW,207,5.0,9.0,88,0.00,,SCT,0.00,0.00,VWS V14.01,2013-05-05 10:10:00,
2013-05-05 06:15:00,43.8,40.5,30.31,SSW,200,0.0,9.0,88,0.00,,SCT,0.00,0.00,VWS V14.01,2013-05-05 10:15:00,
2013-05-05 06:20:00,44.0,40.4,30.32,South,183,4.0,9.0,87,0.00,,SCT,0.00,7.00,VWS V14.01,2013-05-05 10:20:00,
2013-05-05 06:25:00,44.1,40.5,30.32,SSW,199,0.0,9.0,87,0.00,,SCT,0.00,11.00,VWS V14.01,2013-05-05 10:25:00,
2013-05-05 06:30:00,44.1,40.5,30.32,South,180,2.0,9.0,87,0.00,,SCT,0.00,14.00,VWS V14.01,2013-05-05 10:30:00,
2013-05-05 06:35:00,44.3,40.7,30.32,SSE,168,0.0,9.0,87,0.00,,SCT,0.00,21.00,VWS V14.01,2013-05-05 10:35:00,
2013-05-05 06:40:00,44.8,40.9,30.32,SSE,166,2.0,9.0,86,0.00,,SCT,0.00,18.00,VWS V14.01,2013-05-05 10:40:00,
2013-05-05 06:45:00,44.9,40.7,30.32,South,186,0.0,9.0,85,0.00,,SCT,0.00,18.00,VWS V14.01,2013-05-05 10:45:00,
2013-05-05 06:50:00,44.7,40.8,30.33,South,188,0.0,9.0,86,0.00,,SCT,0.00,21.00,VWS V14.01,2013-05-05 10:50:00,
2013-05-05 06:55:00,44.4,40.5,30.33,SSW,209,0.0,5.0,86,0.00,,SCT,0.00,26.00,VWS V14.01,2013-05-05 10:55:00,
2013-05-05 07:00:00,44.2,40.6,30.33,SSW,209,3.0,5.0,87,0.00,,SCT,0.00,33.00,VWS V14.01,2013-05-05 11:00:00,
2013-05-05 07:05:00,44.3,40.7,30.33,South,182,0.0,6.0,87,0.00,,SCT,0.00,35.00,VWS V14.01,2013-05-05 11:05:00,
2013-05-05 07:10:00,44.7,41.4,30.33,South,186,5.0,7.0,88,0.00,,SCT,0.00,39.00,VWS V14.01,2013-05-05 11:10:00,
2013-05-05 07:15:00,45.1,41.5,30.33,SSE,160,1.0,7.0,87,0.00,,SCT,0.00,44.00,VWS V14.01,2013-05-05 11:15:00,
2013-05-05 07:20:00,45.6,42.0,30.33,South,186,0.0,7.0,87,0.00,,SCT,0.00,46.00,VWS V14.01,2013-05-05 11:20:00,
2013-05-05 07:25:00,45.8,41.9,30.33,South,183,0.0,7.0,86,0.00,,SCT,0.00,44.00,VWS V14.01,2013-05-05 11:25:00,
2013-05-05 07:30:00,45.6,41.7,30.33,SW,217,0.0,7.0,86,0.00,,SCT,0.00,54.00,VWS V14.01,2013-05-05 11:30:00,
2013-05-05 07:35:00,45.4,41.8,30.33,SW,217,0.0,7.0,87,0.00,,SCT,0.00,62.00,VWS V14.01,2013-05-05 11:35:00,
2013-05-05 07:40:00,45.8,42.2,30.33,SSW,198,0.0,7.0,87,0.00,,SCT,0.00,47.00,VWS V14.01,2013-05-05 11:40:00,
2013-05-05 07:45:00,46.0,42.3,30.33,SSW,207,6.0,7.0,87,0.00,,SCT,0.00,60.00,VWS V14.01,2013-05-05 11:45:00,
2013-05-05 07:50:00,46.3,42.7,30.33,SSW,212,3.0,7.0,87,0.00,,SCT,0.00,69.00,VWS V14.01,2013-05-05 11:50:00,
2013-05-05 07:55:00,46.5,42.5,30.33,SSE,167,5.0,8.0,86,0.00,,SCT,0.00,70.00,VWS V14.01,2013-05-05 11:55:00,
2013-05-05 08:00:00,46.5,42.5,30.33,SSW,209,5.0,12.0,86,0.00,,SCT,0.00,74.00,VWS V14.01,2013-05-05 12:00:00,
2013-05-05 08:05:00,46.6,42.6,30.33,SSW,197,3.0,12.0,86,0.00,,SCT,0.00,81.00,VWS V14.01,2013-05-05 12:05:00,
2013-05-05 08:10:00,46.7,42.7,30.34,South,171,0.0,12.0,86,0.00,,SCT,0.00,84.00,VWS V14.01,2013-05-05 12:10:00,
2013-05-05 08:15:00,46.8,42.8,30.34,SSW,208,5.0,12.0,86,0.00,,SCT,0.00,88.00,VWS V14.01,2013-05-05 12:15:00,
2013-05-05 08:20:00,47.0,43.0,30.34,SSW,206,5.0,12.0,86,0.00,,SCT,0.00,98.00,VWS V14.01,2013-05-05 12:20:00,
2013-05-05 08:25:00,47.1,43.1,30.34,South,169,5.0,12.0,86,0.00,,SCT,0.00,107.00,VWS V14.01,2013-05-05 12:25:00,
2013-05-05 08:30:00,47.2,43.2,30.34,South,177,8.0,12.0,86,0.00,,SCT,0.00,100.00,VWS V14.01,2013-05-05 12:30:00,
2013-05-05 08:35:00,47.2,42.9,30.34,South,180,4.0,12.0,85,0.00,,SCT,0.00,104.00,VWS V14.01,2013-05-05 12:35:00,
2013-05-05 08:40:00,47.3,43.0,30.34,SSW,192,7.0,12.0,85,0.00,,SCT,0.00,111.00,VWS V14.01,2013-05-05 12:40:00,
2013-05-05 08:45:00,47.5,43.2,30.34,South,174,0.0,12.0,85,0.00,,SCT,0.00,142.00,VWS V14.01,2013-05-05 12:45:00,
2013-05-05 08:50:00,47.7,43.4,30.34,SW,215,3.0,12.0,85,0.00,,SCT,0.00,139.00,VWS V14.01,2013-05-05 12:50:00,
2013-05-05 08:55:00,47.9,43.6,30.34,SSW,209,6.0,9.0,85,0.00,,SCT,0.00,139.00,VWS V14.01,2013-05-05 12:55:00,
2013-05-05 09:00:00,48.0,43.4,30.34,South,188,7.0,10.0,84,0.00,,SCT,0.00,155.00,VWS V14.01,2013-05-05 13:00:00,
2013-05-05 09:05:00,48.2,43.6,30.34,SSW,193,2.0,10.0,84,0.00,,SCT,0.00,134.00,VWS V14.01,2013-05-05 13:05:00,
2013-05-05 09:10:00,48.4,43.5,30.34,SSW,194,6.0,10.0,83,0.00,,SCT,0.00,171.00,VWS V14.01,2013-05-05 13:10:00,
2013-05-05 09:15:00,48.6,43.7,30.34,South,189,4.0,11.0,83,0.00,,SCT,0.00,195.00,VWS V14.01,2013-05-05 13:15:00,
2013-05-05 09:20:00,48.8,43.6,30.34,South,175,6.0,12.0,82,0.00,,SCT,0.00,188.00,VWS V14.01,2013-05-05 13:20:00,
2013-05-05 09:25:00,48.9,43.3,30.34,SW,223,1.0,12.0,81,0.00,,SCT,0.00,193.00,VWS V14.01,2013-05-05 13:25:00,
2013-05-05 09:30:00,49.3,44.0,30.34,South,173,6.0,12.0,82,0.00,,SCT,0.00,204.00,VWS V14.01,2013-05-05 13:30:00,
2013-05-05 09:35:00,49.4,43.8,30.34,South,177,11.0,12.0,81,0.00,,SCT,0.00,211.00,VWS V14.01,2013-05-05 13:35:00,
2013-05-05 09:40:00,49.5,43.6,30.34,SSE,157,7.0,12.0,80,0.00,,SCT,0.00,211.00,VWS V14.01,2013-05-05 13:40:00,
2013-05-05 09:45:00,49.5,43.6,30.34,SSW,200,3.0,13.0,80,0.00,,SCT,0.00,237.00,VWS V14.01,2013-05-05 13:45:00,
2013-05-05 09:50:00,49.6,43.4,30.34,South,189,0.0,15.0,79,0.00,,SCT,0.00,246.00,VWS V14.01,2013-05-05 13:50:00,
2013-05-05 09:55:00,49.9,44.0,30.34,SSE,157,4.0,7.0,80,0.00,,SCT,0.00,264.00,VWS V14.01,2013-05-05 13:55:00,
2013-05-05 10:00:00,49.9,43.3,30.34,SSW,198,9.0,14.0,78,0.00,,SCT,0.00,274.00,VWS V14.01,2013-05-05 14:00:00,
2013-05-05 10:04:00,50.1,43.5,30.33,SE,144,0.0,14.0,78,0.00,,SCT,0.00,323.00,VWS V14.01,2013-05-05 14:04:00,
2013-05-05 10:09:00,50.5,43.6,30.33,SE,140,8.0,14.0,77,0.00,,SCT,0.00,297.00,VWS V14.01,2013-05-05 14:09:00,
2013-05-05 10:14:00,50.6,43.7,30.33,South,188,2.0,14.0,77,0.00,,SCT,0.00,302.00,VWS V14.01,2013-05-05 14:14:00,
2013-05-05 10:19:00,50.5,42.9,30.33,SSW,200,7.0,14.0,75,0.00,,SCT,0.00,301.00,VWS V14.01,2013-05-05 14:19:00,
2013-05-05 10:24:00,50.8,43.5,30.33,SSW,203,4.0,14.0,76,0.00,,SCT,0.00,302.00,VWS V14.01,2013-05-05 14:24:00,
2013-05-05 10:29:00,51.1,43.1,30.33,SSE,157,6.0,14.0,74,0.00,,SCT,0.00,339.00,VWS V14.01,2013-05-05 14:29:00,
2013-05-05 10:34:00,51.0,43.0,30.33,SSW,207,4.0,15.0,74,0.00,,SCT,0.00,359.00,VWS V14.01,2013-05-05 14:34:00,
2013-05-05 10:39:00,51.1,43.1,30.33,South,176,11.0,15.0,74,0.00,,SCT,0.00,311.00,VWS V14.01,2013-05-05 14:39:00,
2013-05-05 10:44:00,51.3,43.3,30.33,SSW,200,5.0,15.0,74,0.00,,SCT,0.00,330.00,VWS V14.01,2013-05-05 14:44:00,
2013-05-05 10:49:00,51.6,43.6,30.33,South,173,11.0,15.0,74,0.00,,SCT,0.00,311.00,VWS V14.01,2013-05-05 14:49:00,
2013-05-05 10:54:00,51.5,43.5,30.33,South,175,10.0,10.0,74,0.00,,SCT,0.00,352.00,VWS V14.01,2013-05-05 14:54:00,
2013-05-05 10:59:00,51.8,43.4,30.33,South,178,7.0,10.0,73,0.00,,SCT,0.00,383.00,VWS V14.01,2013-05-05 14:59:00,
2013-05-05 11:00:00,51.5,43.1,30.33,SSE,155,7.0,15.0,73,0.00,,SCT,0.00,346.00,VWS V14.01,2013-05-05 15:00:00,
2013-05-05 11:04:00,51.8,43.4,30.33,SSW,210,5.0,12.0,73,0.00,,SCT,0.00,357.00,VWS V14.01,2013-05-05 15:04:00,
2013-05-05 11:09:00,52.2,43.8,30.33,SSW,213,8.0,12.0,73,0.00,,SCT,0.00,371.00,VWS V14.01,2013-05-05 15:09:00,
2013-05-05 11:14:00,52.0,43.3,30.33,SW,215,4.0,12.0,72,0.00,,SCT,0.00,394.00,VWS V14.01,2013-05-05 15:14:00,
2013-05-05 11:19:00,52.4,43.7,30.33,SSW,201,7.0,14.0,72,0.00,,SCT,0.00,438.00,VWS V14.01,2013-05-05 15:19:00,
2013-05-05 11:24:00,53.0,44.6,30.33,SSE,165,7.0,14.0,73,0.00,,SCT,0.00,508.00,VWS V14.01,2013-05-05 15:24:00,
2013-05-05 11:29:00,53.1,43.6,30.32,SSW,205,5.0,14.0,70,0.00,,SCT,0.00,457.00,VWS V14.01,2013-05-05 15:29:00,
2013-05-05 11:34:00,53.8,43.5,30.33,WSW,246,7.0,14.0,68,0.00,,SCT,0.00,545.00,VWS V14.01,2013-05-05 15:34:00,
2013-05-05 11:39:00,54.1,45.3,30.33,SW,229,8.0,14.0,72,0.00,,SCT,0.00,1151.00,VWS V14.01,2013-05-05 15:39:00,
2013-05-05 11:44:00,54.7,44.0,30.32,SSW,200,10.0,14.0,67,0.00,,SCT,0.00,1151.00,VWS V14.01,2013-05-05 15:44:00,
2013-05-05 11:49:00,54.0,43.7,30.32,SSW,194,3.0,14.0,68,0.00,,SCT,0.00,520.00,VWS V14.01,2013-05-05 15:49:00,
2013-05-05 11:54:00,54.7,44.7,30.32,SW,224,6.0,10.0,69,0.00,,SCT,0.00,1267.00,VWS V14.01,2013-05-05 15:54:00,
2013-05-05 11:59:00,54.4,43.7,30.32,SSW,209,6.0,13.0,67,0.00,,SCT,0.00,531.00,VWS V14.01,2013-05-05 15:59:00,
2013-05-05 12:00:00,54.5,44.9,30.32,SW,236,2.0,14.0,70,0.00,,SCT,0.00,1267.00,VWS V14.01,2013-05-05 16:00:00,
2013-05-05 12:04:00,54.7,44.7,30.31,SSW,198,7.0,13.0,69,0.00,,SCT,0.00,554.00,VWS V14.01,2013-05-05 16:04:00,
2013-05-05 12:09:00,55.2,45.2,30.31,South,182,4.0,13.0,69,0.00,,SCT,0.00,1181.00,VWS V14.01,2013-05-05 16:09:00,
2013-05-05 12:14:00,55.3,44.2,30.31,SW,232,8.0,13.0,66,0.00,,SCT,0.00,417.00,VWS V14.01,2013-05-05 16:14:00,
2013-05-05 12:19:00,54.9,44.5,30.31,SE,140,4.0,13.0,68,0.00,,SCT,0.00,424.00,VWS V14.01,2013-05-05 16:19:00,
2013-05-05 12:24:00,54.7,44.4,30.31,SSW,195,1.0,13.0,68,0.00,,SCT,0.00,548.00,VWS V14.01,2013-05-05 16:24:00,
2013-05-05 12:29:00,56.0,45.6,30.31,SW,233,10.0,16.0,68,0.00,,SCT,0.00,698.00,VWS V14.01,2013-05-05 16:29:00,
2013-05-05 12:34:00,56.0,44.8,30.31,SSW,202,5.0,16.0,66,0.00,,SCT,0.00,698.00,VWS V14.01,2013-05-05 16:34:00,
2013-05-05 12:39:00,56.5,45.3,30.31,SW,227,7.0,16.0,66,0.00,,SCT,0.00,1130.00,VWS V14.01,2013-05-05 16:39:00,
2013-05-05 12:44:00,56.6,45.0,30.31,SW,227,7.0,16.0,65,0.00,,SCT,0.00,1039.00,VWS V14.01,2013-05-05 16:44:00,
2013-05-05 12:49:00,56.6,45.0,30.30,WSW,247,10.0,16.0,65,0.00,,SCT,0.00,1011.00,VWS V14.01,2013-05-05 16:49:00,
2013-05-05 12:54:00,56.5,44.5,30.30,WSW,242,12.0,12.0,64,0.00,,SCT,0.00,1025.00,VWS V14.01,2013-05-05 16:54:00,
2013-05-05 12:59:00,56.5,44.5,30.30,SW,236,8.0,12.0,64,0.00,,SCT,0.00,928.00,VWS V14.01,2013-05-05 16:59:00,
2013-05-05 13:00:00,56.5,44.5,30.30,WSW,242,12.0,16.0,64,0.00,,SCT,0.00,1025.00,VWS V14.01,2013-05-05 17:00:00,
2013-05-05 13:04:00,56.5,44.1,30.30,SW,232,9.0,13.0,63,0.00,,SCT,0.00,902.00,VWS V14.01,2013-05-05 17:04:00,
2013-05-05 13:09:00,56.5,44.1,30.30,WSW,247,9.0,13.0,63,0.00,,SCT,0.00,153.00,VWS V14.01,2013-05-05 17:09:00,
2013-05-05 13:14:00,56.5,44.5,30.30,West,262,7.0,13.0,64,0.00,,SCT,0.00,151.00,VWS V14.01,2013-05-05 17:14:00,
2013-05-05 13:19:00,57.2,45.2,30.29,SW,232,8.0,14.0,64,0.00,,SCT,0.00,144.00,VWS V14.01,2013-05-05 17:19:00,
2013-05-05 13:24:00,58.0,45.5,30.29,SW,231,5.0,14.0,63,0.00,,SCT,0.00,396.00,VWS V14.01,2013-05-05 17:24:00,
2013-05-05 13:29:00,57.4,45.3,30.29,SW,223,6.0,14.0,64,0.00,,SCT,0.00,926.00,VWS V14.01,2013-05-05 17:29:00,
2013-05-05 13:34:00,57.6,45.1,30.29,SW,230,7.0,14.0,63,0.00,,SCT,0.00,158.00,VWS V14.01,2013-05-05 17:34:00,
2013-05-05 13:39:00,58.1,45.2,30.29,West,259,7.0,15.0,62,0.00,,SCT,0.00,775.00,VWS V14.01,2013-05-05 17:39:00,
2013-05-05 13:44:00,58.8,46.7,30.28,SW,219,9.0,15.0,64,0.00,,SCT,0.00,872.00,VWS V14.01,2013-05-05 17:44:00,
2013-05-05 13:49:00,58.8,46.2,30.28,WSW,252,9.0,15.0,63,0.00,,SCT,0.00,888.00,VWS V14.01,2013-05-05 17:49:00,
2013-05-05 13:54:00,59.0,45.6,30.28,West,263,8.0,8.0,61,0.00,,SCT,0.00,861.00,VWS V14.01,2013-05-05 17:54:00,
2013-05-05 13:59:00,60.0,46.5,30.27,SSE,156,7.0,9.0,61,0.00,,SCT,0.00,932.00,VWS V14.01,2013-05-05 17:59:00,
2013-05-05 14:00:00,58.9,45.5,30.28,WSW,250,6.0,15.0,61,0.00,,SCT,0.00,861.00,VWS V14.01,2013-05-05 18:00:00,
2013-05-05 14:04:00,59.6,45.3,30.27,West,259,10.0,13.0,59,0.00,,SCT,0.00,856.00,VWS V14.01,2013-05-05 18:04:00,
2013-05-05 14:09:00,60.0,47.0,30.27,WSW,258,9.0,13.0,62,0.00,,SCT,0.00,879.00,VWS V14.01,2013-05-05 18:09:00,
2013-05-05 14:14:00,59.5,44.7,30.27,South,185,3.0,13.0,58,0.00,,SCT,0.00,867.00,VWS V14.01,2013-05-05 18:14:00,
2013-05-05 14:19:00,60.2,46.3,30.27,SW,225,5.0,16.0,60,0.00,,SCT,0.00,854.00,VWS V14.01,2013-05-05 18:19:00,
2013-05-05 14:24:00,60.3,45.9,30.26,SW,232,10.0,16.0,59,0.00,,SCT,0.00,854.00,VWS V14.01,2013-05-05 18:24:00,
2013-05-05 14:29:00,59.7,45.4,30.26,SW,235,3.0,16.0,59,0.00,,SCT,0.00,856.00,VWS V14.01,2013-05-05 18:29:00,
2013-05-05 14:34:00,60.9,46.9,30.26,SW,228,8.0,16.0,60,0.00,,SCT,0.00,816.00,VWS V14.01,2013-05-05 18:34:00,
2013-05-05 14:39:00,60.5,45.7,30.26,West,263,7.0,16.0,58,0.00,,SCT,0.00,796.00,VWS V14.01,2013-05-05 18:39:00,
2013-05-05 14:44:00,60.6,45.3,30.25,SW,215,8.0,16.0,57,0.00,,SCT,0.00,765.00,VWS V14.01,2013-05-05 18:44:00,
2013-05-05 14:49:00,61.0,46.1,30.25,WSW,256,9.0,16.0,58,0.00,,SCT,0.00,782.00,VWS V14.01,2013-05-05 18:49:00,
2013-05-05 14:54:00,61.5,46.6,30.25,WSW,258,8.0,12.0,58,0.00,,SCT,0.00,786.00,VWS V14.01,2013-05-05 18:54:00,
2013-05-05 14:59:00,61.6,47.6,30.25,WSW,239,7.0,12.0,60,0.00,,SCT,0.00,731.00,VWS V14.01,2013-05-05 18:59:00,
2013-05-05 15:00:00,61.6,46.7,30.25,SSW,200,10.0,16.0,58,0.00,,SCT,0.00,789.00,VWS V14.01,2013-05-05 19:00:00,
2013-05-05 15:04:00,61.7,46.3,30.25,WNW,282,11.0,14.0,57,0.00,,SCT,0.00,765.00,VWS V14.01,2013-05-05 19:04:00,
2013-05-05 15:09:00,61.6,47.2,30.25,West,263,10.0,14.0,59,0.00,,SCT,0.00,805.00,VWS V14.01,2013-05-05 19:09:00,
2013-05-05 15:14:00,61.7,45.9,30.25,West,262,11.0,18.0,56,0.00,,SCT,0.00,779.00,VWS V14.01,2013-05-05 19:14:00,
2013-05-05 15:19:00,61.8,46.4,30.24,WSW,246,11.0,18.0,57,0.00,,SCT,0.00,786.00,VWS V14.01,2013-05-05 19:19:00,
2013-05-05 15:24:00,61.9,45.6,30.24,WSW,257,4.0,18.0,55,0.00,,SCT,0.00,802.00,VWS V14.01,2013-05-05 19:24:00,
2013-05-05 15:29:00,62.1,45.8,30.24,SW,227,9.0,18.0,55,0.00,,SCT,0.00,796.00,VWS V14.01,2013-05-05 19:29:00,
2013-05-05 15:34:00,62.2,46.3,30.24,WSW,246,11.0,18.0,56,0.00,,SCT,0.00,777.00,VWS V14.01,2013-05-05 19:34:00,
2013-05-05 15:39:00,62.4,46.5,30.24,WSW,246,9.0,18.0,56,0.00,,SCT,0.00,780.00,VWS V14.01,2013-05-05 19:39:00,
2013-05-05 15:44:00,63.1,47.2,30.24,SW,216,8.0,18.0,56,0.00,,SCT,0.00,784.00,VWS V14.01,2013-05-05 19:44:00,
2013-05-05 15:49:00,62.6,46.2,30.24,SW,222,5.0,18.0,55,0.00,,SCT,0.00,547.00,VWS V14.01,2013-05-05 19:49:00,
2013-05-05 15:54:00,62.5,46.6,30.23,WSW,252,11.0,11.0,56,0.00,,SCT,0.00,492.00,VWS V14.01,2013-05-05 19:54:00,
2013-05-05 15:59:00,62.5,46.1,30.23,WSW,248,7.0,13.0,55,0.00,,SCT,0.00,343.00,VWS V14.01,2013-05-05 19:59:00,
2013-05-05 16:00:00,62.4,46.5,30.23,WSW,250,11.0,18.0,56,0.00,,SCT,0.00,457.00,VWS V14.01,2013-05-05 20:00:00,
2013-05-05 16:04:00,62.5,46.6,30.23,West,271,10.0,14.0,56,0.00,,SCT,0.00,476.00,VWS V14.01,2013-05-05 20:04:00,
2013-05-05 16:09:00,62.4,46.5,30.23,SW,227,7.0,14.0,56,0.00,,SCT,0.00,459.00,VWS V14.01,2013-05-05 20:09:00,
2013-05-05 16:14:00,62.7,46.8,30.23,WSW,247,4.0,14.0,56,0.00,,SCT,0.00,647.00,VWS V14.01,2013-05-05 20:14:00,
2013-05-05 16:19:00,63.0,47.1,30.24,SW,232,11.0,14.0,56,0.00,,SCT,0.00,483.00,VWS V14.01,2013-05-05 20:19:00,
2013-05-05 16:24:00,62.7,46.3,30.23,WSW,245,6.0,14.0,55,0.00,,SCT,0.00,480.00,VWS V14.01,2013-05-05 20:24:00,
2013-05-05 16:29:00,62.8,46.4,30.23,SSW,198,8.0,14.0,55,0.00,,SCT,0.00,373.00,VWS V14.01,2013-05-05 20:29:00,
2013-05-05 16:34:00,63.1,46.2,30.23,WSW,248,3.0,14.0,54,0.00,,SCT,0.00,265.00,VWS V14.01,2013-05-05 20:34:00,
2013-05-05 16:39:00,62.9,47.0,30.23,WSW,255,10.0,14.0,56,0.00,,SCT,0.00,378.00,VWS V14.01,2013-05-05 20:39:00,
2013-05-05 16:44:00,62.8,46.4,30.23,West,274,5.0,14.0,55,0.00,,SCT,0.00,406.00,VWS V14.01,2013-05-05 20:44:00,
2013-05-05 16:49:00,63.0,47.1,30.22,SSW,209,12.0,14.0,56,0.00,,SCT,0.00,656.00,VWS V14.01,2013-05-05 20:49:00,
2013-05-05 16:54:00,63.5,47.1,30.22,WSW,238,6.0,10.0,55,0.00,,SCT,0.00,487.00,VWS V14.01,2013-05-05 20:54:00,
2013-05-05 16:59:00,63.5,47.5,30.22,SW,215,11.0,11.0,56,0.00,,SCT,0.00,555.00,VWS V14.01,2013-05-05 20:59:00,
2013-05-05 17:00:00,63.5,47.1,30.22,SW,221,10.0,16.0,55,0.00,,SCT,0.00,522.00,VWS V14.01,2013-05-05 21:00:00,
2013-05-05 17:04:00,63.5,47.5,30.22,West,261,10.0,16.0,56,0.00,,SCT,0.00,566.00,VWS V14.01,2013-05-05 21:04:00,
2013-05-05 17:09:00,63.6,47.6,30.22,WSW,243,6.0,17.0,56,0.00,,SCT,0.00,515.00,VWS V14.01,2013-05-05 21:09:00,
2013-05-05 17:14:00,63.4,47.5,30.22,WSW,242,16.0,17.0,56,0.00,,SCT,0.00,520.00,VWS V14.01,2013-05-05 21:14:00,
2013-05-05 17:19:00,63.5,47.5,30.22,WSW,249,6.0,18.0,56,0.00,,SCT,0.00,499.00,VWS V14.01,2013-05-05 21:19:00,
2013-05-05 17:24:00,64.0,48.0,30.22,WSW,248,6.0,18.0,56,0.00,,SCT,0.00,466.00,VWS V14.01,2013-05-05 21:24:00,
2013-05-05 17:29:00,63.8,48.8,30.22,South,191,7.0,18.0,58,0.00,,SCT,0.00,446.00,VWS V14.01,2013-05-05 21:29:00,
2013-05-05 17:34:00,63.8,47.8,30.22,WSW,250,7.0,18.0,56,0.00,,SCT,0.00,443.00,VWS V14.01,2013-05-05 21:34:00,
2013-05-05 17:39:00,63.6,47.6,30.22,WSW,257,6.0,18.0,56,0.00,,SCT,0.00,415.00,VWS V14.01,2013-05-05 21:39:00,
2013-05-05 17:44:00,63.6,47.6,30.22,SW,216,9.0,18.0,56,0.00,,SCT,0.00,401.00,VWS V14.01,2013-05-05 21:44:00,
2013-05-05 17:49:00,63.5,47.5,30.22,SW,233,6.0,18.0,56,0.00,,SCT,0.00,366.00,VWS V14.01,2013-05-05 21:49:00,
2013-05-05 17:54:00,63.6,47.6,30.22,SW,231,11.0,15.0,56,0.00,,SCT,0.00,346.00,VWS V14.01,2013-05-05 21:54:00,
2013-05-05 17:59:00,63.6,47.6,30.22,WSW,253,9.0,15.0,56,0.00,,SCT,0.00,172.00,VWS V14.01,2013-05-05 21:59:00,
2013-05-05 18:00:00,63.6,47.6,30.22,SW,234,8.0,18.0,56,0.00,,SCT,0.00,346.00,VWS V14.01,2013-05-05 22:00:00,
2013-05-05 18:04:00,63.5,47.5,30.22,SW,227,10.0,15.0,56,0.00,,SCT,0.00,116.00,VWS V14.01,2013-05-05 22:04:00,
2013-05-05 18:09:00,63.2,47.7,30.22,SW,227,6.0,16.0,57,0.00,,SCT,0.00,81.00,VWS V14.01,2013-05-05 22:09:00,
2013-05-05 18:14:00,63.1,48.1,30.22,SW,226,5.0,16.0,58,0.00,,SCT,0.00,109.00,VWS V14.01,2013-05-05 22:14:00,
2013-05-05 18:19:00,63.1,48.1,30.22,WSW,254,6.0,16.0,58,0.00,,SCT,0.00,158.00,VWS V14.01,2013-05-05 22:19:00,
2013-05-05 18:24:00,63.2,48.2,30.22,SW,231,6.0,16.0,58,0.00,,SCT,0.00,83.00,VWS V14.01,2013-05-05 22:24:00,
2013-05-05 18:29:00,63.2,47.7,30.22,SW,236,6.0,16.0,57,0.00,,SCT,0.00,77.00,VWS V14.01,2013-05-05 22:29:00,
2013-05-05 18:34:00,63.2,48.2,30.22,SW,235,7.0,16.0,58,0.00,,SCT,0.00,83.00,VWS V14.01,2013-05-05 22:34:00,
2013-05-05 18:39:00,63.1,48.1,30.22,SW,233,6.0,16.0,58,0.00,,SCT,0.00,77.00,VWS V14.01,2013-05-05 22:39:00,
2013-05-05 18:44:00,63.1,48.1,30.21,WSW,246,8.0,16.0,58,0.00,,SCT,0.00,69.00,VWS V14.01,2013-05-05 22:44:00,
2013-05-05 18:49:00,63.0,48.5,30.21,SW,227,6.0,16.0,59,0.00,,SCT,0.00,62.00,VWS V14.01,2013-05-05 22:49:00,
2013-05-05 18:54:00,63.0,48.5,30.21,WSW,248,8.0,9.0,59,0.00,,SCT,0.00,62.00,VWS V14.01,2013-05-05 22:54:00,
2013-05-05 18:59:00,63.0,48.5,30.21,SW,232,10.0,10.0,59,0.00,,SCT,0.00,46.00,VWS V14.01,2013-05-05 22:59:00,
2013-05-05 19:00:00,63.0,48.5,30.21,SW,215,7.0,16.0,59,0.00,,SCT,0.00,62.00,VWS V14.01,2013-05-05 23:00:00,
2013-05-05 19:04:00,62.9,48.4,30.21,WSW,241,12.0,14.0,59,0.00,,SCT,0.00,30.00,VWS V14.01,2013-05-05 23:04:00,
2013-05-05 19:09:00,62.8,48.3,30.21,WSW,240,7.0,16.0,59,0.00,,SCT,0.00,23.00,VWS V14.01,2013-05-05 23:09:00,
2013-05-05 19:14:00,62.7,48.6,30.21,SW,236,7.0,16.0,60,0.00,,SCT,0.00,23.00,VWS V14.01,2013-05-05 23:14:00,
2013-05-05 19:19:00,62.7,48.2,30.21,SW,225,5.0,16.0,59,0.00,,SCT,0.00,23.00,VWS V14.01,2013-05-05 23:19:00,
2013-05-05 19:24:00,62.6,48.5,30.21,WSW,239,8.0,16.0,60,0.00,,SCT,0.00,23.00,VWS V14.01,2013-05-05 23:24:00,
2013-05-05 19:29:00,62.6,48.5,30.21,WSW,251,7.0,16.0,60,0.00,,SCT,0.00,21.00,VWS V14.01,2013-05-05 23:29:00,
2013-05-05 19:34:00,62.5,48.9,30.21,West,259,7.0,16.0,61,0.00,,SCT,0.00,12.00,VWS V14.01,2013-05-05 23:34:00,
2013-05-05 19:39:00,62.5,48.4,30.21,SW,228,8.0,16.0,60,0.00,,SCT,0.00,9.00,VWS V14.01,2013-05-05 23:39:00,
2013-05-05 19:44:00,62.4,48.8,30.21,SW,223,9.0,16.0,61,0.00,,SCT,0.00,7.00,VWS V14.01,2013-05-05 23:44:00,
2013-05-05 19:49:00,62.3,48.7,30.22,SW,226,5.0,16.0,61,0.00,,SCT,0.00,5.00,VWS V14.01,2013-05-05 23:49:00,
2013-05-05 19:54:00,62.2,48.6,30.22,SW,234,4.0,10.0,61,0.00,,SCT,0.00,0.00,VWS V14.01,2013-05-05 23:54:00,
2013-05-05 19:59:00,62.1,48.5,30.22,SW,236,6.0,10.0,61,0.00,,SCT,0.00,0.00,VWS V14.01,2013-05-05 23:59:00,
2013-05-05 20:00:00,62.2,48.6,30.22,SW,226,10.0,16.0,61,0.00,,SCT,0.00,0.00,VWS V14.01,2013-05-06 00:00:00,
2013-05-05 20:04:00,62.0,48.4,30.22,SW,219,8.0,10.0,61,0.00,,SCT,0.00,0.00,VWS V14.01,2013-05-06 00:04:00,
2013-05-05 20:09:00,62.0,48.4,30.22,WSW,254,8.0,12.0,61,0.00,,SCT,0.00,0.00,VWS V14.01,2013-05-06 00:09:00,
2013-05-05 20:14:00,61.9,48.3,30.22,SSW,205,9.0,12.0,61,0.00,,SCT,0.00,0.00,VWS V14.01,2013-05-06 00:14:00,
2013-05-05 20:19:00,61.8,48.2,30.22,SW,225,7.0,14.0,61,0.00,,SCT,0.00,0.00,VWS V14.01,2013-05-06 00:19:00,
2013-05-05 20:24:00,61.7,48.6,30.22,WSW,239,7.0,14.0,62,0.00,,SCT,0.00,0.00,VWS V14.01,2013-05-06 00:24:00,
2013-05-05 20:29:00,61.6,48.5,30.22,SW,223,6.0,14.0,62,0.00,,SCT,0.00,0.00,VWS V14.01,2013-05-06 00:29:00,
2013-05-05 20:34:00,61.5,48.8,30.22,WSW,243,3.0,14.0,63,0.00,,SCT,0.00,0.00,VWS V14.01,2013-05-06 00:34:00,
2013-05-05 20:39:00,61.4,48.7,30.22,SW,227,8.0,14.0,63,0.00,,SCT,0.00,0.00,VWS V14.01,2013-05-06 00:39:00,
2013-05-05 20:44:00,61.3,48.6,30.22,SW,227,7.0,14.0,63,0.00,,SCT,0.00,0.00,VWS V14.01,2013-05-06 00:44:00,
2013-05-05 20:49:00,61.3,49.0,30.23,SSW,204,10.0,16.0,64,0.00,,SCT,0.00,0.00,VWS V14.01,2013-05-06 00:49:00,
2013-05-05 20:54:00,61.2,48.9,30.23,West,273,9.0,9.0,64,0.00,,SCT,0.00,0.00,VWS V14.01,2013-05-06 00:54:00,
2013-05-05 20:59:00,61.1,49.3,30.23,SW,219,7.0,10.0,65,0.00,,SCT,0.00,0.00,VWS V14.01,2013-05-06 00:59:00,
2013-05-05 21:00:00,61.2,48.9,30.23,West,259,4.0,16.0,64,0.00,,SCT,0.00,0.00,VWS V14.01,2013-05-06 01:00:00,
2013-05-05 21:04:00,60.9,49.1,30.23,WNW,293,9.0,12.0,65,0.00,,SCT,0.00,0.00,VWS V14.01,2013-05-06 01:04:00,
2013-05-05 21:09:00,60.8,49.4,30.23,SW,216,7.0,12.0,66,0.00,,SCT,0.00,0.00,VWS V14.01,2013-05-06 01:09:00,
2013-05-05 21:14:00,60.7,49.7,30.23,WSW,244,6.0,12.0,67,0.00,,SCT,0.00,0.00,VWS V14.01,2013-05-06 01:14:00,
2013-05-05 21:19:00,60.6,49.6,30.23,WSW,238,8.0,12.0,67,0.00,,SCT,0.00,0.00,VWS V14.01,2013-05-06 01:19:00,
2013-05-05 21:24:00,60.5,49.5,30.23,SW,223,8.0,12.0,67,0.00,,SCT,0.00,0.00,VWS V14.01,2013-05-06 01:24:00,
2013-05-05 21:29:00,60.5,49.9,30.24,SW,227,8.0,12.0,68,0.00,,SCT,0.00,0.00,VWS V14.01,2013-05-06 01:29:00,
2013-05-05 21:34:00,60.4,49.8,30.24,WSW,238,7.0,12.0,68,0.00,,SCT,0.00,0.00,VWS V14.01,2013-05-06 01:34:00,
2013-05-05 21:39:00,60.4,49.8,30.24,WSW,238,6.0,12.0,68,0.00,,SCT,0.00,0.00,VWS V14.01,2013-05-06 01:39:00,
2013-05-05 21:44:00,60.2,50.0,30.24,WSW,240,7.0,12.0,69,0.00,,SCT,0.00,0.00,VWS V14.01,2013-05-06 01:44:00,
2013-05-05 21:49:00,60.2,50.0,30.25,SW,235,5.0,12.0,69,0.00,,SCT,0.00,0.00,VWS V14.01,2013-05-06 01:49:00,
2013-05-05 21:54:00,60.0,50.2,30.25,SW,235,7.0,10.0,70,0.00,,SCT,0.00,0.00,VWS V14.01,2013-05-06 01:54:00,
2013-05-05 21:59:00,60.0,50.2,30.25,SW,221,8.0,15.0,70,0.00,,SCT,0.00,0.00,VWS V14.01,2013-05-06 01:59:00,
2013-05-05 22:00:00,60.0,50.2,30.25,SW,227,6.0,12.0,70,0.00,,SCT,0.00,0.00,VWS V14.01,2013-05-06 02:00:00,
2013-05-05 22:03:00,59.9,50.5,30.25,WSW,237,5.0,15.0,71,0.00,,SCT,0.00,0.00,VWS V14.01,2013-05-06 02:03:00,
2013-05-05 22:08:00,59.8,50.4,30.25,WSW,242,7.0,15.0,71,0.00,,SCT,0.00,0.00,VWS V14.01,2013-05-06 02:08:00,
2013-05-05 22:13:00,59.7,50.3,30.25,SW,227,9.0,15.0,71,0.00,,SCT,0.00,0.00,VWS V14.01,2013-05-06 02:13:00,
2013-05-05 22:18:00,59.6,50.2,30.25,WSW,246,8.0,15.0,71,0.00,,SCT,0.00,0.00,VWS V14.01,2013-05-06 02:18:00,
2013-05-05 22:23:00,59.5,50.1,30.25,SW,236,10.0,15.0,71,0.00,,SCT,0.00,0.00,VWS V14.01,2013-05-06 02:23:00,
2013-05-05 22:28:00,59.5,50.1,30.25,WSW,248,4.0,15.0,71,0.00,,SCT,0.00,0.00,VWS V14.01,2013-05-06 02:28:00,
2013-05-05 22:33:00,59.4,50.0,30.25,SW,219,8.0,15.0,71,0.00,,SCT,0.00,0.00,VWS V14.01,2013-05-06 02:33:00,
2013-05-05 22:38:00,59.4,50.0,30.25,SW,230,10.0,15.0,71,0.00,,SCT,0.00,0.00,VWS V14.01,2013-05-06 02:38:00,
2013-05-05 22:43:00,59.2,50.2,30.25,SW,230,6.0,15.0,72,0.00,,SCT,0.00,0.00,VWS V14.01,2013-05-06 02:43:00,
2013-05-05 22:48:00,59.2,49.8,30.25,SW,235,9.0,15.0,71,0.00,,SCT,0.00,0.00,VWS V14.01,2013-05-06 02:48:00,
2013-05-05 22:53:00,59.2,49.8,30.25,SW,236,4.0,9.0,71,0.00,,SCT,0.00,0.00,VWS V14.01,2013-05-06 02:53:00,
2013-05-05 22:58:00,59.1,49.7,30.25,WSW,242,5.0,14.0,71,0.00,,SCT,0.00,0.00,VWS V14.01,2013-05-06 02:58:00,
2013-05-05 23:00:00,59.1,49.7,30.25,SW,227,9.0,15.0,71,0.00,,SCT,0.00,0.00,VWS V14.01,2013-05-06 03:00:00,
2013-05-05 23:03:00,59.0,50.4,30.25,WSW,240,10.0,14.0,73,0.00,,SCT,0.00,0.00,VWS V14.01,2013-05-06 03:03:00,
2013-05-05 23:08:00,59.0,50.4,30.25,SW,221,7.0,14.0,73,0.00,,SCT,0.00,0.00,VWS V14.01,2013-05-06 03:08:00,
2013-05-05 23:13:00,59.0,49.6,30.25,WSW,251,4.0,14.0,71,0.00,,SCT,0.00,0.00,VWS V14.01,2013-05-06 03:13:00,
2013-05-05 23:18:00,58.9,49.5,30.25,SW,221,8.0,14.0,71,0.00,,SCT,0.00,0.00,VWS V14.01,2013-05-06 03:18:00,
2013-05-05 23:23:00,58.8,49.4,30.25,SW,229,6.0,16.0,71,0.00,,SCT,0.00,0.00,VWS V14.01,2013-05-06 03:23:00,
2013-05-05 23:28:00,58.7,49.3,30.25,SW,216,10.0,16.0,71,0.00,,SCT,0.00,0.00,VWS V14.01,2013-05-06 03:28:00,
2013-05-05 23:33:00,58.6,49.6,30.25,SW,234,6.0,16.0,72,0.00,,SCT,0.00,0.00,VWS V14.01,2013-05-06 03:33:00,
2013-05-05 23:38:00,58.6,49.6,30.25,SW,232,8.0,16.0,72,0.00,,SCT,0.00,0.00,VWS V14.01,2013-05-06 03:38:00,
2013-05-05 23:43:00,58.5,49.5,30.24,WSW,237,7.0,16.0,72,0.00,,SCT,0.00,0.00,VWS V14.01,2013-05-06 03:43:00,
2013-05-05 23:48:00,58.4,49.4,30.24,SW,229,9.0,16.0,72,0.00,,SCT,0.00,0.00,VWS V14.01,2013-05-06 03:48:00,
2013-05-05 23:53:00,58.3,49.7,30.25,WSW,240,8.0,9.0,73,0.00,,SCT,0.00,0.00,VWS V14.01,2013-05-06 03:53:00,
2013-05-05 23:58:00,58.2,49.6,30.25,SW,223,9.0,12.0,73,0.00,,SCT,0.00,0.00,VWS V14.01,2013-05-06 03:58:00,